EBFS

Florennes Air Base Airport

Florennes, Belgium
METAR EBFS 210855Z AUTO 05004KT 3200 BR NCD 17/12 Q1022 YLO
Observed Flight Rules
Apr-21 @ 08:55 UTC (45 minutes ago) Instrument Flight Rules
Wind Visibility Clouds Conditions
50° at 4 knots 3,203 meters
  • Clear skies
  • Mist
Temperatures Readings
Current 17°C / 63°F
Dewpoint 12°C / 54°F
Humidity 73%
Altimeter 30.18" Hg
Pressure 1022 hPa
Elevation 299
METAR EBFS 210855Z AUTO 05004KT 3200 BR NCD 17/12 Q1022 YLO
Observed Flight Rules
Apr-21 @ 08:55 UTC
(45 minutes ago)
IFR
Wind Visibility
50° at 4 knots 3,203 meters
Clouds
  • Clear skies
Conditions
  • Mist
Temperature Dewpoint
17°C / 63°F 12°C / 54°F
Humidity Altimeter Pressure
73% 30.18" Hg 1022 hPa